sensor_id;sensor_type;location;lat;lon;timestamp;pressure;altitude;pressure_sealevel;temperature;humidity
65754;BME280;52488;47.502;18.940;2023-03-04T00:00:04;98113.56;;;0.38;72.02
65754;BME280;52488;47.502;18.940;2023-03-04T00:01:08;98110.78;;;0.43;71.55
65754;BME280;52488;47.502;18.940;2023-03-04T00:02:11;98117.66;;;0.25;71.83
65754;BME280;52488;47.502;18.940;2023-03-04T00:03:14;98114.09;;;0.17;72.24
65754;BME280;52488;47.502;18.940;2023-03-04T00:04:17;98114.75;;;0.23;72.34
65754;BME280;52488;47.502;18.940;2023-03-04T00:05:20;98108.94;;;0.33;72.22
65754;BME280;52488;47.502;18.940;2023-03-04T00:06:23;98118.53;;;0.34;72.35
65754;BME280;52488;47.502;18.940;2023-03-04T00:07:27;98117.38;;;0.29;72.50
65754;BME280;52488;47.502;18.940;2023-03-04T00:08:30;98114.28;;;0.19;72.68
65754;BME280;52488;47.502;18.940;2023-03-04T00:09:33;98110.72;;;0.11;72.98
65754;BME280;52488;47.502;18.940;2023-03-04T00:10:36;98109.75;;;0.09;73.06
65754;BME280;52488;47.502;18.940;2023-03-04T00:11:39;98116.47;;;0.02;73.50
65754;BME280;52488;47.502;18.940;2023-03-04T00:12:42;98109.63;;;0.01;73.67
65754;BME280;52488;47.502;18.940;2023-03-04T00:13:45;98107.50;;;0.13;73.63
65754;BME280;52488;47.502;18.940;2023-03-04T00:14:47;98111.44;;;0.31;73.40
65754;BME280;52488;47.502;18.940;2023-03-04T00:15:51;98104.59;;;0.30;73.38
65754;BME280;52488;47.502;18.940;2023-03-04T00:16:55;98107.81;;;0.28;73.47
65754;BME280;52488;47.502;18.940;2023-03-04T00:17:58;98101.22;;;0.23;73.53
65754;BME280;52488;47.502;18.940;2023-03-04T00:19:01;98108.69;;;0.17;73.63
65754;BME280;52488;47.502;18.940;2023-03-04T00:20:05;98103.50;;;0.19;73.72
65754;BME280;52488;47.502;18.940;2023-03-04T00:21:08;98105.91;;;0.23;73.78
65754;BME280;52488;47.502;18.940;2023-03-04T00:22:11;98105.84;;;0.29;73.74
65754;BME280;52488;47.502;18.940;2023-03-04T00:23:14;98109.03;;;0.27;73.62
65754;BME280;52488;47.502;18.940;2023-03-04T00:24:17;98107.97;;;0.17;73.84
65754;BME280;52488;47.502;18.940;2023-03-04T00:25:20;98101.44;;;0.07;74.29
65754;BME280;52488;47.502;18.940;2023-03-04T00:26:23;98101.00;;;0.03;74.55
65754;BME280;52488;47.502;18.940;2023-03-04T00:27:26;98094.34;;;0.04;74.48
65754;BME280;52488;47.502;18.940;2023-03-04T00:28:29;98100.12;;;0.13;74.19
65754;BME280;52488;47.502;18.940;2023-03-04T00:29:33;98094.13;;;0.20;73.79
65754;BME280;52488;47.502;18.940;2023-03-04T00:30:36;98095.59;;;0.21;73.61
65754;BME280;52488;47.502;18.940;2023-03-04T00:31:39;98101.97;;;0.24;73.43
65754;BME280;52488;47.502;18.940;2023-03-04T00:32:41;98097.00;;;0.28;73.28
65754;BME280;52488;47.502;18.940;2023-03-04T00:33:45;98095.22;;;0.31;73.14
65754;BME280;52488;47.502;18.940;2023-03-04T00:34:47;98097.06;;;0.41;72.51
65754;BME280;52488;47.502;18.940;2023-03-04T00:35:51;98102.16;;;0.45;71.84
65754;BME280;52488;47.502;18.940;2023-03-04T00:36:54;98098.06;;;0.38;71.78
65754;BME280;52488;47.502;18.940;2023-03-04T00:38:03;98100.34;;;0.34;71.92
65754;BME280;52488;47.502;18.940;2023-03-04T00:39:05;98102.69;;;0.24;72.17
65754;BME280;52488;47.502;18.940;2023-03-04T00:40:10;98109.34;;;0.23;72.38
65754;BME280;52488;47.502;18.940;2023-03-04T00:41:13;98101.00;;;0.21;72.43
65754;BME280;52488;47.502;18.940;2023-03-04T00:42:16;98106.72;;;0.18;72.46
65754;BME280;52488;47.502;18.940;2023-03-04T00:43:20;98110.22;;;0.13;72.59
65754;BME280;52488;47.502;18.940;2023-03-04T00:44:23;98105.91;;;0.23;72.36
65754;BME280;52488;47.502;18.940;2023-03-04T00:45:26;98111.88;;;0.16;72.42
65754;BME280;52488;47.502;18.940;2023-03-04T00:46:29;98110.50;;;0.09;72.70
65754;BME280;52488;47.502;18.940;2023-03-04T00:47:32;98109.63;;;0.20;72.62
65754;BME280;52488;47.502;18.940;2023-03-04T00:48:35;98107.38;;;0.24;71.97
65754;BME280;52488;47.502;18.940;2023-03-04T00:49:38;98106.41;;;0.21;71.88
65754;BME280;52488;47.502;18.940;2023-03-04T00:50:41;98100.78;;;0.19;71.77
65754;BME280;52488;47.502;18.940;2023-03-04T00:51:44;98102.38;;;0.09;71.94
65754;BME280;52488;47.502;18.940;2023-03-04T00:52:47;98101.72;;;0.03;72.24
65754;BME280;52488;47.502;18.940;2023-03-04T00:53:50;98102.38;;;0.09;72.08
65754;BME280;52488;47.502;18.940;2023-03-04T00:54:54;98102.97;;;0.02;71.96
65754;BME280;52488;47.502;18.940;2023-03-04T00:55:57;98091.72;;;-0.02;71.87
65754;BME280;52488;47.502;18.940;2023-03-04T00:57:00;98097.19;;;-0.08;72.04
65754;BME280;52488;47.502;18.940;2023-03-04T00:58:03;98091.66;;;0.04;71.26
65754;BME280;52488;47.502;18.940;2023-03-04T00:59:06;98098.38;;;-0.03;71.23
65754;BME280;52488;47.502;18.940;2023-03-04T01:00:09;98096.91;;;-0.04;71.21
65754;BME280;52488;47.502;18.940;2023-03-04T01:01:13;98098.97;;;-0.10;71.33
65754;BME280;52488;47.502;18.940;2023-03-04T01:02:16;98089.88;;;-0.13;71.32
65754;BME280;52488;47.502;18.940;2023-03-04T01:03:19;98091.78;;;-0.08;71.25
65754;BME280;52488;47.502;18.940;2023-03-04T01:04:22;98093.84;;;0.05;70.58
65754;BME280;52488;47.502;18.940;2023-03-04T01:05:25;98088.09;;;0.14;69.63
65754;BME280;52488;47.502;18.940;2023-03-04T01:06:29;98086.84;;;0.34;67.91
65754;BME280;52488;47.502;18.940;2023-03-04T01:07:32;98084.78;;;0.21;68.06
65754;BME280;52488;47.502;18.940;2023-03-04T01:08:35;98092.69;;;0.19;68.27
65754;BME280;52488;47.502;18.940;2023-03-04T01:09:39;98082.03;;;0.08;68.69
65754;BME280;52488;47.502;18.940;2023-03-04T01:10:42;98084.50;;;0.06;68.93
65754;BME280;52488;47.502;18.940;2023-03-04T01:11:45;98085.91;;;0.13;68.55
65754;BME280;52488;47.502;18.940;2023-03-04T01:12:48;98078.53;;;0.13;68.36
65754;BME280;52488;47.502;18.940;2023-03-04T01:13:51;98080.25;;;0.11;67.96
65754;BME280;52488;47.502;18.940;2023-03-04T01:14:54;98076.97;;;-0.01;68.36
65754;BME280;52488;47.502;18.940;2023-03-04T01:15:57;98078.75;;;-0.04;68.65
65754;BME280;52488;47.502;18.940;2023-03-04T01:17:01;98078.72;;;0.15;67.95
65754;BME280;52488;47.502;18.940;2023-03-04T01:18:04;98076.34;;;0.12;67.52
65754;BME280;52488;47.502;18.940;2023-03-04T01:19:07;98079.41;;;0.03;67.93
65754;BME280;52488;47.502;18.940;2023-03-04T01:20:11;98080.19;;;-0.03;68.16
65754;BME280;52488;47.502;18.940;2023-03-04T01:21:14;98077.94;;;0.02;67.65
65754;BME280;52488;47.502;18.940;2023-03-04T01:22:18;98071.16;;;-0.05;67.25
65754;BME280;52488;47.502;18.940;2023-03-04T01:23:21;98069.75;;;-0.12;67.56
65754;BME280;52488;47.502;18.940;2023-03-04T01:24:24;98076.62;;;-0.11;67.68
65754;BME280;52488;47.502;18.940;2023-03-04T01:25:27;98075.25;;;0.02;67.03
65754;BME280;52488;47.502;18.940;2023-03-04T01:26:30;98070.19;;;-0.08;67.25
65754;BME280;52488;47.502;18.940;2023-03-04T01:27:33;98077.06;;;-0.07;67.02
65754;BME280;52488;47.502;18.940;2023-03-04T01:28:36;98071.72;;;-0.12;67.37
65754;BME280;52488;47.502;18.940;2023-03-04T01:29:39;98073.47;;;-0.15;67.66
65754;BME280;52488;47.502;18.940;2023-03-04T01:30:42;98068.28;;;-0.13;67.05
65754;BME280;52488;47.502;18.940;2023-03-04T01:31:45;98071.78;;;-0.18;67.28
65754;BME280;52488;47.502;18.940;2023-03-04T01:32:48;98070.78;;;-0.15;67.29
65754;BME280;52488;47.502;18.940;2023-03-04T01:33:51;98064.13;;;-0.14;66.75
65754;BME280;52488;47.502;18.940;2023-03-04T01:34:54;98071.28;;;-0.16;66.82
65754;BME280;52488;47.502;18.940;2023-03-04T01:35:57;98070.91;;;-0.07;65.98
65754;BME280;52488;47.502;18.940;2023-03-04T01:37:01;98068.00;;;-0.09;65.69
65754;BME280;52488;47.502;18.940;2023-03-04T01:38:03;98069.19;;;-0.05;65.28
65754;BME280;52488;47.502;18.940;2023-03-04T01:39:06;98072.69;;;-0.10;65.25
65754;BME280;52488;47.502;18.940;2023-03-04T01:40:10;98064.78;;;-0.08;65.32
65754;BME280;52488;47.502;18.940;2023-03-04T01:41:17;98068.75;;;-0.09;65.40
65754;BME280;52488;47.502;18.940;2023-03-04T01:42:22;98065.25;;;-0.04;65.29
65754;BME280;52488;47.502;18.940;2023-03-04T01:43:28;98069.97;;;-0.10;64.90
65754;BME280;52488;47.502;18.940;2023-03-04T01:44:32;98068.66;;;-0.03;64.55
65754;BME280;52488;47.502;18.940;2023-03-04T01:45:35;98070.19;;;-0.08;64.55
65754;BME280;52488;47.502;18.940;2023-03-04T01:46:49;98060.28;;;0.01;64.27
65754;BME280;52488;47.502;18.940;2023-03-04T01:47:53;98061.81;;;-0.04;64.31
65754;BME280;52488;47.502;18.940;2023-03-04T01:48:57;98057.22;;;-0.09;64.45
65754;BME280;52488;47.502;18.940;2023-03-04T01:50:03;98062.44;;;-0.17;64.49
65754;BME280;52488;47.502;18.940;2023-03-04T01:51:11;98061.00;;;-0.18;64.62
65754;BME280;52488;47.502;18.940;2023-03-04T01:52:15;98057.63;;;-0.24;64.40
65754;BME280;52488;47.502;18.940;2023-03-04T01:53:24;98058.94;;;-0.31;64.93
65754;BME280;52488;47.502;18.940;2023-03-04T01:54:27;98060.41;;;-0.30;64.84
65754;BME280;52488;47.502;18.940;2023-03-04T01:55:31;98060.69;;;-0.33;64.82
65754;BME280;52488;47.502;18.940;2023-03-04T01:56:37;98059.25;;;-0.15;64.09
65754;BME280;52488;47.502;18.940;2023-03-04T01:57:40;98054.50;;;-0.09;63.21
65754;BME280;52488;47.502;18.940;2023-03-04T01:58:44;98055.66;;;-0.23;63.68
65754;BME280;52488;47.502;18.940;2023-03-04T01:59:47;98054.47;;;-0.28;63.98
65754;BME280;52488;47.502;18.940;2023-03-04T02:01:11;98051.84;;;-0.34;64.13
65754;BME280;52488;47.502;18.940;2023-03-04T02:02:14;98049.37;;;-0.32;63.88
65754;BME280;52488;47.502;18.940;2023-03-04T02:03:17;98047.13;;;-0.28;63.74
65754;BME280;52488;47.502;18.940;2023-03-04T02:04:27;98053.34;;;-0.33;64.05
65754;BME280;52488;47.502;18.940;2023-03-04T02:05:30;98054.56;;;-0.34;64.02
65754;BME280;52488;47.502;18.940;2023-03-04T02:06:36;98044.78;;;-0.37;64.06
65754;BME280;52488;47.502;18.940;2023-03-04T02:07:41;98053.94;;;-0.45;64.76
65754;BME280;52488;47.502;18.940;2023-03-04T02:08:45;98039.53;;;-0.48;65.04
65754;BME280;52488;47.502;18.940;2023-03-04T02:09:48;98043.41;;;-0.43;64.90
65754;BME280;52488;47.502;18.940;2023-03-04T02:10:51;98042.59;;;-0.38;64.54
65754;BME280;52488;47.502;18.940;2023-03-04T02:11:54;98042.87;;;-0.23;63.37
65754;BME280;52488;47.502;18.940;2023-03-04T02:12:59;98048.81;;;-0.24;62.95
65754;BME280;52488;47.502;18.940;2023-03-04T02:14:03;98044.28;;;-0.35;63.30
65754;BME280;52488;47.502;18.940;2023-03-04T02:15:07;98040.91;;;-0.22;62.96
65754;BME280;52488;47.502;18.940;2023-03-04T02:16:10;98047.94;;;-0.33;63.02
65754;BME280;52488;47.502;18.940;2023-03-04T02:17:13;98041.81;;;-0.33;62.98
65754;BME280;52488;47.502;18.940;2023-03-04T02:18:22;98041.50;;;-0.30;62.90
65754;BME280;52488;47.502;18.940;2023-03-04T02:19:47;98035.44;;;-0.36;63.32
65754;BME280;52488;47.502;18.940;2023-03-04T02:21:10;98042.87;;;-0.42;64.19
65754;BME280;52488;47.502;18.940;2023-03-04T02:22:16;98036.31;;;-0.46;64.45
65754;BME280;52488;47.502;18.940;2023-03-04T02:23:28;98032.16;;;-0.47;64.20
65754;BME280;52488;47.502;18.940;2023-03-04T02:24:43;98031.16;;;-0.44;64.16
65754;BME280;52488;47.502;18.940;2023-03-04T02:27:04;98026.91;;;-0.40;63.48
65754;BME280;52488;47.502;18.940;2023-03-04T02:28:07;98026.03;;;-0.48;63.57
65754;BME280;52488;47.502;18.940;2023-03-04T02:29:12;98030.78;;;-0.35;63.17
65754;BME280;52488;47.502;18.940;2023-03-04T02:30:21;98024.94;;;-0.39;63.29
65754;BME280;52488;47.502;18.940;2023-03-04T02:31:38;98017.66;;;-0.25;62.86
65754;BME280;52488;47.502;18.940;2023-03-04T02:32:41;98019.47;;;-0.15;62.34
65754;BME280;52488;47.502;18.940;2023-03-04T02:33:44;98012.78;;;-0.27;62.46
65754;BME280;52488;47.502;18.940;2023-03-04T02:34:48;98018.81;;;-0.40;63.12
65754;BME280;52488;47.502;18.940;2023-03-04T02:35:52;98018.38;;;-0.44;63.30
65754;BME280;52488;47.502;18.940;2023-03-04T02:36:56;98009.47;;;-0.39;63.21
65754;BME280;52488;47.502;18.940;2023-03-04T02:37:59;98006.19;;;-0.32;62.83
65754;BME280;52488;47.502;18.940;2023-03-04T02:40:30;98008.03;;;-0.21;61.88
65754;BME280;52488;47.502;18.940;2023-03-04T02:41:35;98010.88;;;-0.32;61.95
65754;BME280;52488;47.502;18.940;2023-03-04T02:42:38;98007.72;;;-0.36;62.32
65754;BME280;52488;47.502;18.940;2023-03-04T02:43:43;98009.91;;;-0.35;62.07
65754;BME280;52488;47.502;18.940;2023-03-04T02:44:47;98009.75;;;-0.42;62.31
65754;BME280;52488;47.502;18.940;2023-03-04T02:45:52;98008.91;;;-0.32;62.04
65754;BME280;52488;47.502;18.940;2023-03-04T02:46:56;98004.50;;;-0.35;62.21
65754;BME280;52488;47.502;18.940;2023-03-04T02:47:59;97996.78;;;-0.44;62.50
65754;BME280;52488;47.502;18.940;2023-03-04T02:49:02;98002.03;;;-0.33;62.35
65754;BME280;52488;47.502;18.940;2023-03-04T02:50:05;98001.75;;;-0.29;61.98
65754;BME280;52488;47.502;18.940;2023-03-04T02:51:08;97993.66;;;-0.10;60.72
65754;BME280;52488;47.502;18.940;2023-03-04T02:52:15;97993.94;;;-0.14;60.70
65754;BME280;52488;47.502;18.940;2023-03-04T02:53:20;97998.31;;;-0.30;61.40
65754;BME280;52488;47.502;18.940;2023-03-04T02:54:23;98000.62;;;-0.39;62.03
65754;BME280;52488;47.502;18.940;2023-03-04T02:55:27;97997.06;;;-0.47;62.44
65754;BME280;52488;47.502;18.940;2023-03-04T02:56:30;98000.12;;;-0.57;63.35
65754;BME280;52488;47.502;18.940;2023-03-04T02:57:33;97997.41;;;-0.57;63.17
65754;BME280;52488;47.502;18.940;2023-03-04T02:58:36;97993.53;;;-0.61;63.28
65754;BME280;52488;47.502;18.940;2023-03-04T02:59:41;97983.19;;;-0.57;63.11
65754;BME280;52488;47.502;18.940;2023-03-04T03:00:44;97992.97;;;-0.54;62.61
65754;BME280;52488;47.502;18.940;2023-03-04T03:01:48;97997.19;;;-0.59;62.51
65754;BME280;52488;47.502;18.940;2023-03-04T03:02:51;97993.84;;;-0.65;62.73
65754;BME280;52488;47.502;18.940;2023-03-04T03:03:54;97990.91;;;-0.67;62.84
65754;BME280;52488;47.502;18.940;2023-03-04T03:04:57;97993.12;;;-0.65;62.98
65754;BME280;52488;47.502;18.940;2023-03-04T03:06:00;97989.69;;;-0.66;62.92
65754;BME280;52488;47.502;18.940;2023-03-04T03:07:03;97991.34;;;-0.63;62.80
65754;BME280;52488;47.502;18.940;2023-03-04T03:08:06;97990.03;;;-0.56;62.24
65754;BME280;52488;47.502;18.940;2023-03-04T03:09:09;97978.91;;;-0.47;61.88
65754;BME280;52488;47.502;18.940;2023-03-04T03:10:12;97989.03;;;-0.53;63.25
65754;BME280;52488;47.502;18.940;2023-03-04T03:11:16;97996.69;;;-0.57;63.20
65754;BME280;52488;47.502;18.940;2023-03-04T03:12:19;97991.09;;;-0.59;63.11
65754;BME280;52488;47.502;18.940;2023-03-04T03:13:22;97987.72;;;-0.65;63.06
65754;BME280;52488;47.502;18.940;2023-03-04T03:14:25;97987.28;;;-0.69;63.01
65754;BME280;52488;47.502;18.940;2023-03-04T03:15:28;97984.28;;;-0.66;62.96
65754;BME280;52488;47.502;18.940;2023-03-04T03:16:31;97987.66;;;-0.60;62.83
65754;BME280;52488;47.502;18.940;2023-03-04T03:17:35;97976.72;;;-0.48;62.51
65754;BME280;52488;47.502;18.940;2023-03-04T03:18:38;97982.47;;;-0.58;62.75
65754;BME280;52488;47.502;18.940;2023-03-04T03:19:42;97980.13;;;-0.67;62.82
65754;BME280;52488;47.502;18.940;2023-03-04T03:20:45;97985.97;;;-0.63;62.76
65754;BME280;52488;47.502;18.940;2023-03-04T03:21:48;97979.63;;;-0.65;62.84
65754;BME280;52488;47.502;18.940;2023-03-04T03:22:51;97974.97;;;-0.65;62.95
65754;BME280;52488;47.502;18.940;2023-03-04T03:23:54;97977.28;;;-0.74;63.19
65754;BME280;52488;47.502;18.940;2023-03-04T03:24:58;97980.25;;;-0.78;63.37
65754;BME280;52488;47.502;18.940;2023-03-04T03:26:01;97980.25;;;-0.78;63.35
65754;BME280;52488;47.502;18.940;2023-03-04T03:27:04;97978.06;;;-0.80;63.38
65754;BME280;52488;47.502;18.940;2023-03-04T03:28:07;97975.59;;;-0.77;63.37
65754;BME280;52488;47.502;18.940;2023-03-04T03:29:10;97984.34;;;-0.71;63.21
65754;BME280;52488;47.502;18.940;2023-03-04T03:30:14;97977.47;;;-0.72;63.17
65754;BME280;52488;47.502;18.940;2023-03-04T03:31:17;97962.25;;;-0.70;62.99
65754;BME280;52488;47.502;18.940;2023-03-04T03:32:21;97971.66;;;-0.76;63.08
65754;BME280;52488;47.502;18.940;2023-03-04T03:33:25;97975.09;;;-0.76;63.21
65754;BME280;52488;47.502;18.940;2023-03-04T03:34:28;97982.47;;;-0.76;63.32
65754;BME280;52488;47.502;18.940;2023-03-04T03:35:32;97975.25;;;-0.68;63.14
65754;BME280;52488;47.502;18.940;2023-03-04T03:36:35;97970.56;;;-0.68;63.05
65754;BME280;52488;47.502;18.940;2023-03-04T03:37:38;97972.41;;;-0.76;63.08
65754;BME280;52488;47.502;18.940;2023-03-04T03:38:41;97973.69;;;-0.83;63.36
65754;BME280;52488;47.502;18.940;2023-03-04T03:39:44;97972.47;;;-0.63;63.09
65754;BME280;52488;47.502;18.940;2023-03-04T03:40:47;97954.56;;;-0.60;63.25
65754;BME280;52488;47.502;18.940;2023-03-04T03:41:50;97965.69;;;-0.69;63.75
65754;BME280;52488;47.502;18.940;2023-03-04T03:42:54;97970.41;;;-0.75;63.48
65754;BME280;52488;47.502;18.940;2023-03-04T03:43:57;97973.72;;;-0.64;63.47
65754;BME280;52488;47.502;18.940;2023-03-04T03:45:00;97974.72;;;-0.67;63.57
65754;BME280;52488;47.502;18.940;2023-03-04T03:46:04;97971.38;;;-0.73;63.67
65754;BME280;52488;47.502;18.940;2023-03-04T03:47:07;97966.28;;;-0.76;63.78
65754;BME280;52488;47.502;18.940;2023-03-04T03:48:10;97975.09;;;-0.76;63.90
65754;BME280;52488;47.502;18.940;2023-03-04T03:49:13;97973.56;;;-0.71;63.80
65754;BME280;52488;47.502;18.940;2023-03-04T03:50:16;97967.59;;;-0.64;63.42
65754;BME280;52488;47.502;18.940;2023-03-04T03:51:19;97971.38;;;-0.73;63.46
65754;BME280;52488;47.502;18.940;2023-03-04T03:52:22;97968.38;;;-0.69;63.53
65754;BME280;52488;47.502;18.940;2023-03-04T03:53:25;97971.16;;;-0.75;63.61
65754;BME280;52488;47.502;18.940;2023-03-04T03:54:29;97976.59;;;-0.81;64.01
65754;BME280;52488;47.502;18.940;2023-03-04T03:55:32;97968.00;;;-0.79;64.26
65754;BME280;52488;47.502;18.940;2023-03-04T03:56:35;97973.25;;;-0.87;64.62
65754;BME280;52488;47.502;18.940;2023-03-04T03:57:38;97964.63;;;-0.85;64.74
65754;BME280;52488;47.502;18.940;2023-03-04T03:58:40;97969.31;;;-0.86;64.78
65754;BME280;52488;47.502;18.940;2023-03-04T03:59:43;97971.66;;;-0.76;64.61
65754;BME280;52488;47.502;18.940;2023-03-04T04:00:46;97975.16;;;-0.82;64.65
65754;BME280;52488;47.502;18.940;2023-03-04T04:01:50;97966.81;;;-0.84;64.86
65754;BME280;52488;47.502;18.940;2023-03-04T04:02:54;97969.09;;;-0.88;65.21
65754;BME280;52488;47.502;18.940;2023-03-04T04:03:59;97965.44;;;-0.90;65.41
65754;BME280;52488;47.502;18.940;2023-03-04T04:05:03;97970.88;;;-0.96;65.83
65754;BME280;52488;47.502;18.940;2023-03-04T04:06:06;97974.37;;;-1.01;66.06
65754;BME280;52488;47.502;18.940;2023-03-04T04:07:09;97971.19;;;-0.99;65.99
65754;BME280;52488;47.502;18.940;2023-03-04T04:08:13;97978.50;;;-0.94;65.93
65754;BME280;52488;47.502;18.940;2023-03-04T04:09:17;97968.59;;;-0.86;65.86
65754;BME280;52488;47.502;18.940;2023-03-04T04:10:20;97970.81;;;-0.90;66.08
65754;BME280;52488;47.502;18.940;2023-03-04T04:11:23;97966.94;;;-0.95;66.28
65754;BME280;52488;47.502;18.940;2023-03-04T04:12:26;97966.28;;;-1.01;66.54
65754;BME280;52488;47.502;18.940;2023-03-04T04:13:29;97976.06;;;-0.98;66.62
65754;BME280;52488;47.502;18.940;2023-03-04T04:14:32;97960.16;;;-0.77;66.35
65754;BME280;52488;47.502;18.940;2023-03-04T04:15:36;97967.94;;;-0.73;66.14
65754;BME280;52488;47.502;18.940;2023-03-04T04:16:40;97969.31;;;-0.86;66.62
65754;BME280;52488;47.502;18.940;2023-03-04T04:17:44;97965.25;;;-0.73;66.22
65754;BME280;52488;47.502;18.940;2023-03-04T04:18:47;97969.81;;;-0.87;66.47
65754;BME280;52488;47.502;18.940;2023-03-04T04:19:50;97971.13;;;-0.94;66.83
65754;BME280;52488;47.502;18.940;2023-03-04T04:20:53;97962.47;;;-0.87;66.87
65754;BME280;52488;47.502;18.940;2023-03-04T04:21:56;97967.91;;;-0.92;66.97
65754;BME280;52488;47.502;18.940;2023-03-04T04:22:59;97962.00;;;-0.91;67.08
65754;BME280;52488;47.502;18.940;2023-03-04T04:24:02;97969.16;;;-0.93;67.12
65754;BME280;52488;47.502;18.940;2023-03-04T04:25:06;97962.59;;;-0.98;67.31
65754;BME280;52488;47.502;18.940;2023-03-04T04:26:12;97966.53;;;-0.99;67.26
65754;BME280;52488;47.502;18.940;2023-03-04T04:27:15;97961.47;;;-1.08;67.59
65754;BME280;52488;47.502;18.940;2023-03-04T04:28:18;97967.53;;;-1.02;67.57
65754;BME280;52488;47.502;18.940;2023-03-04T04:29:29;97976.28;;;-0.96;67.50
65754;BME280;52488;47.502;18.940;2023-03-04T04:30:32;97953.41;;;-0.89;67.71
65754;BME280;52488;47.502;18.940;2023-03-04T04:31:35;97961.16;;;-0.80;67.55
65754;BME280;52488;47.502;18.940;2023-03-04T04:32:38;97960.56;;;-0.92;67.85
65754;BME280;52488;47.502;18.940;2023-03-04T04:33:41;97959.44;;;-1.02;68.23
65754;BME280;52488;47.502;18.940;2023-03-04T04:34:44;97957.53;;;-1.07;68.74
65754;BME280;52488;47.502;18.940;2023-03-04T04:35:47;97956.63;;;-0.91;68.51
65754;BME280;52488;47.502;18.940;2023-03-04T04:36:51;97951.81;;;-0.79;68.45
65754;BME280;52488;47.502;18.940;2023-03-04T04:37:54;97951.66;;;-0.87;68.55
65754;BME280;52488;47.502;18.940;2023-03-04T04:38:57;97962.78;;;-0.96;68.99
65754;BME280;52488;47.502;18.940;2023-03-04T04:40:00;97961.62;;;-1.00;69.13
65754;BME280;52488;47.502;18.940;2023-03-04T04:41:03;97962.53;;;-0.92;69.01
65754;BME280;52488;47.502;18.940;2023-03-04T04:42:09;97958.78;;;-0.89;68.78
65754;BME280;52488;47.502;18.940;2023-03-04T04:43:12;97950.78;;;-0.95;69.08
65754;BME280;52488;47.502;18.940;2023-03-04T04:44:15;97956.91;;;-0.94;69.04
65754;BME280;52488;47.502;18.940;2023-03-04T04:45:18;97949.25;;;-0.90;68.97
65754;BME280;52488;47.502;18.940;2023-03-04T04:46:20;97952.53;;;-0.97;69.15
65754;BME280;52488;47.502;18.940;2023-03-04T04:47:24;97950.78;;;-0.95;69.08
65754;BME280;52488;47.502;18.940;2023-03-04T04:48:27;97943.00;;;-0.80;68.93
65754;BME280;52488;47.502;18.940;2023-03-04T04:49:30;97951.53;;;-0.75;68.89
65754;BME280;52488;47.502;18.940;2023-03-04T04:50:33;97943.44;;;-0.75;69.17
65754;BME280;52488;47.502;18.940;2023-03-04T04:51:37;97946.88;;;-0.75;69.25
65754;BME280;52488;47.502;18.940;2023-03-04T04:52:40;97949.94;;;-0.65;69.58
65754;BME280;52488;47.502;18.940;2023-03-04T04:53:43;97944.25;;;-0.62;69.42
65754;BME280;52488;47.502;18.940;2023-03-04T04:54:47;97943.37;;;-0.51;69.09
65754;BME280;52488;47.502;18.940;2023-03-04T04:55:49;97947.03;;;-0.48;68.83
65754;BME280;52488;47.502;18.940;2023-03-04T04:56:52;97949.09;;;-0.55;68.93
65754;BME280;52488;47.502;18.940;2023-03-04T04:57:55;97943.37;;;-0.51;69.22
65754;BME280;52488;47.502;18.940;2023-03-04T04:59:01;97942.87;;;-0.49;68.69
65754;BME280;52488;47.502;18.940;2023-03-04T05:00:05;97961.69;;;-0.63;69.06
65754;BME280;52488;47.502;18.940;2023-03-04T05:01:09;97949.22;;;-0.66;69.22
65754;BME280;52488;47.502;18.940;2023-03-04T05:02:12;97945.41;;;-0.57;69.13
65754;BME280;52488;47.502;18.940;2023-03-04T05:03:15;97959.50;;;-0.64;69.10
65754;BME280;52488;47.502;18.940;2023-03-04T05:04:20;97938.44;;;-0.66;69.35
65754;BME280;52488;47.502;18.940;2023-03-04T05:05:23;97946.47;;;-0.60;69.01
65754;BME280;52488;47.502;18.940;2023-03-04T05:06:26;97942.87;;;-0.68;69.38
65754;BME280;52488;47.502;18.940;2023-03-04T05:07:29;97937.56;;;-0.55;69.42
65754;BME280;52488;47.502;18.940;2023-03-04T05:08:32;97943.31;;;-0.64;69.69
65754;BME280;52488;47.502;18.940;2023-03-04T05:09:36;97939.72;;;-0.72;70.04
65754;BME280;52488;47.502;18.940;2023-03-04T05:10:39;97944.75;;;-0.63;70.07
65754;BME280;52488;47.502;18.940;2023-03-04T05:11:42;97945.59;;;-0.49;70.41
65754;BME280;52488;47.502;18.940;2023-03-04T05:12:45;97947.75;;;-0.48;70.70
65754;BME280;52488;47.502;18.940;2023-03-04T05:13:48;97942.94;;;-0.36;69.83
65754;BME280;52488;47.502;18.940;2023-03-04T05:14:51;97946.38;;;-0.36;69.87
65754;BME280;52488;47.502;18.940;2023-03-04T05:15:54;97943.37;;;-0.32;69.89
65754;BME280;52488;47.502;18.940;2023-03-04T05:16:58;97938.13;;;-0.24;69.41
65754;BME280;52488;47.502;18.940;2023-03-04T05:18:01;97945.28;;;-0.27;69.55
65754;BME280;52488;47.502;18.940;2023-03-04T05:19:04;97949.19;;;-0.28;69.41
65754;BME280;52488;47.502;18.940;2023-03-04T05:20:08;97940.16;;;-0.31;69.53
65754;BME280;52488;47.502;18.940;2023-03-04T05:21:12;97941.69;;;-0.16;69.16
65754;BME280;52488;47.502;18.940;2023-03-04T05:22:15;97944.59;;;-0.14;69.21
65754;BME280;52488;47.502;18.940;2023-03-04T05:23:18;97945.53;;;-0.12;69.36
65754;BME280;52488;47.502;18.940;2023-03-04T05:24:21;97942.34;;;-0.10;69.51
65754;BME280;52488;47.502;18.940;2023-03-04T05:25:24;97939.97;;;-0.01;68.87
65754;BME280;52488;47.502;18.940;2023-03-04T05:26:27;97944.00;;;-0.07;69.13
65754;BME280;52488;47.502;18.940;2023-03-04T05:27:30;97944.59;;;-0.14;69.34
65754;BME280;52488;47.502;18.940;2023-03-04T05:28:34;97948.56;;;-0.15;69.46
65754;BME280;52488;47.502;18.940;2023-03-04T05:29:37;97940.38;;;-0.10;69.37
65754;BME280;52488;47.502;18.940;2023-03-04T05:30:42;97945.38;;;-0.01;68.98
65754;BME280;52488;47.502;18.940;2023-03-04T05:31:45;97950.44;;;-0.10;69.09
65754;BME280;52488;47.502;18.940;2023-03-04T05:32:48;97944.09;;;-0.13;69.28
65754;BME280;52488;47.502;18.940;2023-03-04T05:33:50;97946.13;;;-0.19;69.31
65754;BME280;52488;47.502;18.940;2023-03-04T05:34:54;97942.72;;;-0.19;69.51
65754;BME280;52488;47.502;18.940;2023-03-04T05:35:57;97942.84;;;-0.12;69.14
65754;BME280;52488;47.502;18.940;2023-03-04T05:37:00;97946.88;;;-0.18;69.30